Time;durP1;ratioP1;P1;durP2;ratioP2;P2;SDS_P1;SDS_P2;PMS_P1;PMS_P2;Temp;Humidity;BMP_temperature;BMP_pressure;BME280_temperature;BME280_humidity;BME280_pressure;Samples;Min_cycle;Max_cycle;Signal;HPM_P1;HPM_P2
2021/12/23 00:00:46;;;;;;;26.65;15.10;;;-1.00;99.90;;;;;;5036992;28;20032;-70
2021/12/23 00:03:12;;;;;;;27.65;15.50;;;-1.00;99.90;;;;;;5070926;28;20074;-72
2021/12/23 00:05:37;;;;;;;25.98;13.70;;;-1.00;99.90;;;;;;5071332;28;20161;-71
2021/12/23 00:08:03;;;;;;;27.42;13.70;;;-1.00;99.90;;;;;;5053317;28;20036;-71
2021/12/23 00:10:29;;;;;;;25.15;14.63;;;-1.00;99.90;;;;;;5071079;28;20382;-71
2021/12/23 00:12:55;;;;;;;27.08;14.00;;;-1.00;99.90;;;;;;5070206;28;20028;-71
2021/12/23 00:16:01;;;;;;;26.35;14.07;;;-1.00;99.90;;;;;;5034344;28;20036;-71
2021/12/23 00:18:54;;;;;;;25.65;13.50;;;-1.00;99.90;;;;;;5050925;28;20484;-71
2021/12/23 00:23:59;;;;;;;31.25;14.02;;;-1.00;99.90;;;;;;5074059;28;20447;-72
2021/12/23 00:26:25;;;;;;;26.63;13.57;;;-1.00;99.90;;;;;;5055776;28;20028;-72
2021/12/23 00:28:52;;;;;;;25.70;14.15;;;-1.00;99.90;;;;;;5055854;28;20358;-71
2021/12/23 00:31:17;;;;;;;26.83;13.90;;;-0.90;99.90;;;;;;5055771;28;20070;-72
2021/12/23 00:33:44;;;;;;;25.50;12.85;;;-0.90;99.90;;;;;;5055052;28;20020;-71
2021/12/23 00:36:11;;;;;;;27.77;12.90;;;-0.90;99.90;;;;;;5073615;28;20024;-71
2021/12/23 00:38:43;;;;;;;27.07;12.43;;;-0.80;99.90;;;;;;5055846;28;20391;-72
2021/12/23 00:41:09;;;;;;;24.08;13.20;;;-0.80;99.90;;;;;;5073383;28;20039;-71
2021/12/23 00:43:36;;;;;;;27.65;13.23;;;-0.90;99.90;;;;;;5072625;28;20150;-71
2021/12/23 00:46:03;;;;;;;24.10;12.63;;;-0.90;99.90;;;;;;5055477;28;20046;-71
2021/12/23 00:48:29;;;;;;;24.23;13.67;;;-0.80;99.90;;;;;;5073142;28;20024;-71
2021/12/23 00:50:55;;;;;;;25.23;12.50;;;-0.80;99.90;;;;;;5055535;28;20404;-72
2021/12/23 00:53:23;;;;;;;50.60;28.35;;;-0.80;99.90;;;;;;5054754;28;20089;-72
2021/12/23 00:55:52;;;;;;;28.17;15.27;;;;;;;;;;5055363;28;20047;-71
2021/12/23 00:58:18;;;;;;;27.90;13.95;;;;;;;;;;5073223;28;20500;-71
2021/12/23 01:00:45;;;;;;;24.70;12.15;;;;;;;;;;5072969;28;20111;-72
2021/12/23 01:03:11;;;;;;;23.33;12.02;;;;;;;;;;5054349;28;20024;-71
2021/12/23 01:05:37;;;;;;;23.98;11.52;;;;;;;;;;5072906;28;20031;-71
2021/12/23 01:08:04;;;;;;;24.67;11.98;;;;;;;;;;5055067;28;20410;-72
2021/12/23 01:13:18;;;;;;;26.30;13.57;;;;;;;;;;5069400;28;20458;-66
2021/12/23 01:16:00;;;;;;;27.25;13.48;;;;;;;;;;5055100;28;20024;-68
2021/12/23 01:18:29;;;;;;;26.83;14.43;;;;;;;;;;5055048;28;20102;-69
2021/12/23 01:21:03;;;;;;;26.52;13.98;;;;;;;;;;5054726;28;20050;-68
2021/12/23 01:23:30;;;;;;;26.63;13.43;;;;;;;;;;5054185;28;20533;-68
2021/12/23 01:25:56;;;;;;;24.08;12.60;;;;;;;;;;5072584;28;20025;-68
2021/12/23 01:28:22;;;;;;;25.35;12.63;;;;;;;;;;5054753;28;20046;-69
2021/12/23 01:30:49;;;;;;;24.92;13.40;;;;;;;;;;5072462;28;20021;-68
2021/12/23 01:33:15;;;;;;;25.52;13.23;;;;;;;;;;5071764;28;20468;-69
2021/12/23 01:35:44;;;;;;;26.70;13.52;;;;;;;;;;5072629;28;20400;-69
2021/12/23 01:38:10;;;;;;;22.75;12.35;;;;;;;;;;5053848;28;20055;-68
2021/12/23 01:40:36;;;;;;;22.60;11.60;;;;;;;;;;5072572;28;20029;-68
2021/12/23 01:43:04;;;;;;;23.52;13.25;;;;;;;;;;5053706;28;20073;-67
2021/12/23 01:45:31;;;;;;;26.40;12.73;;;;;;;;;;5054354;28;20032;-67
2021/12/23 01:47:58;;;;;;;24.67;12.35;;;;;;;;;;5072468;28;20029;-67
2021/12/23 01:50:27;;;;;;;27.38;13.48;;;;;;;;;;5054527;28;20021;-67
2021/12/23 01:52:58;;;;;;;25.60;12.55;;;;;;;;;;5053588;28;20021;-68
2021/12/23 01:55:24;;;;;;;24.33;12.90;;;;;;;;;;5054499;28;20027;-67
2021/12/23 01:57:51;;;;;;;25.30;12.13;;;;;;;;;;5054398;28;20032;-67
2021/12/23 02:00:17;;;;;;;24.50;12.05;;;;;;;;;;5072591;28;20107;-67
2021/12/23 02:02:44;;;;;;;24.48;12.43;;;;;;;;;;5053659;28;20029;-68
2021/12/23 02:05:10;;;;;;;27.63;14.65;;;;;;;;;;5072306;28;20032;-67
2021/12/23 02:07:36;;;;;;;26.58;12.90;;;;;;;;;;5054431;28;20028;-67
2021/12/23 02:10:04;;;;;;;27.27;14.35;;;;;;;;;;5072404;28;20032;-67
2021/12/23 02:12:30;;;;;;;26.80;12.63;;;;;;;;;;5053434;28;20044;-66
2021/12/23 02:14:56;;;;;;;26.63;12.93;;;;;;;;;;5054303;28;20023;-67
2021/12/23 02:17:22;;;;;;;24.60;12.95;;;;;;;;;;5071989;28;20107;-68
2021/12/23 02:19:52;;;;;;;22.58;12.10;;;;;;;;;;5072130;28;20075;-67
2021/12/23 02:22:18;;;;;;;26.65;13.23;;;;;;;;;;5053535;28;20035;-68
2021/12/23 02:24:44;;;;;;;25.05;13.73;;;;;;;;;;5054093;28;20028;-67
2021/12/23 02:27:11;;;;;;;24.85;12.77;;;;;;;;;;5072102;28;20029;-68
2021/12/23 02:29:37;;;;;;;24.48;12.02;;;;;;;;;;5071873;28;20097;-67
2021/12/23 02:32:03;;;;;;;22.52;11.90;;;;;;;;;;5071348;28;20036;-67
2021/12/23 02:34:29;;;;;;;23.52;11.90;;;;;;;;;;5054043;28;20024;-67
2021/12/23 02:36:56;;;;;;;25.45;12.10;;;;;;;;;;5071929;28;20032;-67
2021/12/23 02:39:23;;;;;;;22.85;13.30;;;;;;;;;;5054021;28;20029;-67
2021/12/23 02:41:49;;;;;;;23.80;11.73;;;;;;;;;;5053114;28;20025;-67
2021/12/23 02:44:16;;;;;;;25.00;12.88;;;;;;;;;;5054129;28;20029;-68
2021/12/23 02:46:42;;;;;;;24.73;12.13;;;;;;;;;;5054015;28;20028;-67
2021/12/23 02:49:08;;;;;;;24.23;12.30;;;;;;;;;;5072619;28;20074;-68
2021/12/23 02:51:34;;;;;;;23.92;11.35;;;;;;;;;;5057286;28;20028;-66
2021/12/23 02:54:00;;;;;;;22.70;12.18;;;;;;;;;;5075381;28;20055;-67
2021/12/23 02:56:26;;;;;;;23.88;12.98;;;;;;;;;;5057720;28;20476;-67
2021/12/23 02:58:52;;;;;;;25.70;12.70;;;;;;;;;;5075223;28;20043;-67
2021/12/23 03:01:19;;;;;;;21.75;11.65;;;;;;;;;;5057265;28;20435;-67
2021/12/23 03:03:45;;;;;;;24.10;13.30;;;;;;;;;;5056818;28;20029;-68
2021/12/23 03:06:12;;;;;;;24.67;12.52;;;;;;;;;;5075306;28;20101;-67
2021/12/23 03:08:40;;;;;;;25.20;13.27;;;;;;;;;;5057434;28;20078;-68
2021/12/23 03:11:07;;;;;;;24.38;11.75;;;;;;;;;;5074923;28;20020;-67
2021/12/23 03:13:33;;;;;;;25.35;13.23;;;;;;;;;;5074482;28;20388;-67
2021/12/23 03:15:59;;;;;;;24.10;12.50;;;;;;;;;;5057077;28;20461;-67
2021/12/23 03:18:26;;;;;;;25.27;12.23;;;;;;;;;;5075132;28;20029;-68
2021/12/23 03:20:52;;;;;;;25.05;12.57;;;;;;;;;;5056875;28;20021;-68
2021/12/23 03:23:19;;;;;;;23.88;12.70;;;;;;;;;;5056492;28;20029;-67
2021/12/23 03:25:45;;;;;;;23.15;12.50;;;;;;;;;;5057032;28;20036;-66
2021/12/23 03:28:11;;;;;;;30.13;14.32;;;;;;;;;;5056772;28;20028;-67
2021/12/23 03:30:37;;;;;;;24.27;12.80;;;;;;;;;;5074863;28;20035;-67
2021/12/23 03:33:03;;;;;;;24.38;12.93;;;;;;;;;;5073933;28;20067;-67
2021/12/23 03:35:29;;;;;;;23.35;12.30;;;;;;;;;;5056258;28;20032;-67
2021/12/23 03:37:55;;;;;;;25.27;12.40;;;;;;;;;;5074726;28;20029;-67
2021/12/23 03:40:21;;;;;;;26.00;12.85;;;;;;;;;;5056535;28;20064;-67
2021/12/23 03:42:47;;;;;;;23.63;12.05;;;;;;;;;;5056019;28;20055;-67
2021/12/23 03:45:13;;;;;;;26.13;13.15;;;;;;;;;;5074435;28;20056;-68
2021/12/23 03:47:40;;;;;;;23.05;11.75;;;;;;;;;;5056570;28;20033;-67
2021/12/23 03:50:07;;;;;;;22.13;11.85;;;;;;;;;;5074711;28;20053;-67
2021/12/23 03:52:33;;;;;;;25.10;12.17;;;;;;;;;;5055839;28;20020;-67
2021/12/23 03:55:00;;;;;;;24.50;12.15;;;;;;;;;;5056457;28;20746;-68
2021/12/23 03:57:26;;;;;;;25.20;12.52;;;;;;;;;;5056171;28;20481;-69
2021/12/23 03:59:52;;;;;;;23.83;13.25;;;;;;;;;;5074159;28;20032;-68
2021/12/23 04:02:18;;;;;;;25.13;13.73;;;;;;;;;;5054834;28;20024;-67
2021/12/23 04:04:44;;;;;;;23.08;12.85;;;;;;;;;;5074294;28;20031;-68
2021/12/23 04:07:10;;;;;;;24.88;13.40;;;;;;;;;;5074012;28;20108;-69
2021/12/23 04:09:36;;;;;;;26.90;13.43;;;;;;;;;;5074246;28;20048;-68
2021/12/23 04:12:02;;;;;;;24.63;12.50;;;;;;;;;;5073430;28;20403;-67
2021/12/23 04:14:28;;;;;;;23.02;12.55;;;;;;;;;;5074354;28;20063;-67
2021/12/23 04:16:54;;;;;;;26.70;13.27;;;;;;;;;;5056472;28;20052;-68
2021/12/23 04:19:20;;;;;;;22.50;12.13;;;;;;;;;;5074345;28;20057;-67
2021/12/23 04:21:46;;;;;;;23.08;12.50;;;;;;;;;;5055337;28;20373;-66
2021/12/23 04:24:12;;;;;;;24.98;12.23;;;;;;;;;;5056314;28;20033;-67
2021/12/23 04:26:38;;;;;;;115.82;59.92;;;;;;;;;;5074181;28;20427;-67
2021/12/23 04:29:05;;;;;;;30.95;16.38;;;;;;;;;;5056171;28;20028;-67
2021/12/23 04:31:32;;;;;;;24.17;13.52;;;;;;;;;;5055567;28;20107;-67
2021/12/23 04:33:58;;;;;;;23.42;13.05;;;;;;;;;;5072921;28;20490;-67
2021/12/23 04:36:27;;;;;;;25.60;13.30;;;;;;;;;;5055582;28;20020;-67
2021/12/23 04:38:53;;;;;;;23.70;12.60;;;;;;;;;;5054040;28;20097;-67
2021/12/23 04:41:20;;;;;;;25.27;13.30;;;;;;;;;;5073212;28;20481;-68
2021/12/23 04:43:46;;;;;;;22.98;11.95;;;;;;;;;;5054647;28;20052;-66
2021/12/23 04:46:13;;;;;;;24.73;13.15;;;;;;;;;;5055545;28;20076;-67
2021/12/23 04:48:39;;;;;;;23.10;13.65;;;;;;;;;;5073090;28;20425;-67
2021/12/23 04:51:05;;;;;;;25.10;13.48;;;;;;;;;;5073381;28;20029;-67
2021/12/23 04:53:32;;;;;;;22.00;12.45;;;;;;;;;;5054920;28;20021;-67
2021/12/23 04:55:58;;;;;;;26.52;14.15;;;;;;;;;;5055782;28;20027;-67
2021/12/23 04:58:25;;;;;;;23.60;12.40;;;;;;;;;;5055678;28;20086;-67
2021/12/23 05:00:51;;;;;;;25.00;13.57;;;;;;;;;;5055845;28;20138;-67
2021/12/23 05:03:18;;;;;;;26.92;13.68;;;;;;;;;;5054570;28;20115;-66
2021/12/23 05:05:45;;;;;;;25.70;13.93;;;;;;;;;;5055731;28;20111;-67
2021/12/23 05:08:11;;;;;;;24.52;13.70;;;;;;;;;;5073238;28;20025;-67
2021/12/23 05:10:37;;;;;;;23.20;13.82;;;;;;;;;;5055218;28;20039;-67
2021/12/23 05:13:04;;;;;;;26.63;14.90;;;;;;;;;;5053194;28;20378;-67
2021/12/23 05:15:30;;;;;;;25.85;14.30;;;;;;;;;;5054850;28;20385;-67
2021/12/23 05:17:56;;;;;;;23.63;13.32;;;;;;;;;;5072888;28;20029;-68
2021/12/23 05:20:22;;;;;;;24.08;12.93;;;;;;;;;;5072774;28;20043;-66
2021/12/23 05:22:48;;;;;;;25.48;13.82;;;;;;;;;;5072121;28;20476;-67
2021/12/23 05:25:15;;;;;;;24.92;13.57;;;;;;;;;;5054862;28;20020;-67
2021/12/23 05:27:41;;;;;;;24.60;14.07;;;;;;;;;;5055374;28;20119;-67
2021/12/23 05:30:08;;;;;;;26.02;13.60;;;;;;;;;;5055068;28;20028;-67
2021/12/23 05:32:34;;;;;;;26.17;13.57;;;;;;;;;;5054246;28;20035;-67
2021/12/23 05:35:00;;;;;;;24.13;13.52;;;;;;;;;;5054405;28;20119;-67
2021/12/23 05:37:26;;;;;;;24.45;13.27;;;;;;;;;;5072415;28;20027;-67
2021/12/23 05:39:52;;;;;;;24.98;13.35;;;;;;;;;;5054848;28;20032;-67
2021/12/23 05:42:18;;;;;;;24.20;13.32;;;;;;;;;;5071707;28;20632;-67
2021/12/23 05:44:44;;;;;;;26.65;14.15;;;;;;;;;;5054406;28;20032;-67
2021/12/23 05:47:10;;;;;;;24.30;13.25;;;;;;;;;;5054375;28;20593;-67
2021/12/23 05:49:36;;;;;;;25.50;15.18;;;;;;;;;;5072663;28;20020;-67
2021/12/23 05:52:03;;;;;;;26.30;14.35;;;-0.70;99.90;;;;;;5053806;28;20559;-67
2021/12/23 05:54:28;;;;;;;24.17;13.07;;;-0.10;99.90;;;;;;5072216;28;20024;-67
2021/12/23 05:56:57;;;;;;;27.95;14.63;;;0.10;99.90;;;;;;5072242;28;20046;-67
2021/12/23 05:59:23;;;;;;;24.70;13.50;;;0.30;99.90;;;;;;5054250;28;20028;-67
2021/12/23 06:01:49;;;;;;;25.98;14.75;;;;;;;;;;5071644;28;20052;-68
2021/12/23 06:04:14;;;;;;;21.67;13.05;;;;;;;;;;5072363;28;20025;-68
2021/12/23 06:06:41;;;;;;;241.07;139.00;;;;;;;;;;5054082;28;20504;-68
2021/12/23 06:09:07;;;;;;;86.40;50.47;;;;;;;;;;5054402;28;20017;-67
2021/12/23 06:11:33;;;;;;;35.88;19.63;;;;;;;;;;5071807;28;20033;-67
2021/12/23 06:13:59;;;;;;;32.75;20.23;;;;;;;;;;5054120;28;20056;-67
2021/12/23 06:16:24;;;;;;;26.23;15.57;;;;;;;;;;5054118;28;20060;-67
2021/12/23 06:18:50;;;;;;;28.42;15.45;;;;;;;;;;5051905;28;20138;-67
2021/12/23 06:21:16;;;;;;;23.92;12.68;;;;;;;;;;5056213;28;20388;-67
2021/12/23 06:23:42;;;;;;;24.80;13.25;;;;;;;;;;5070101;28;20119;-68
2021/12/23 06:26:08;;;;;;;23.95;14.00;;;;;;;;;;5074723;28;20028;-68
2021/12/23 06:28:34;;;;;;;25.77;13.43;;;;;;;;;;5065742;28;20021;-67
2021/12/23 06:31:00;;;;;;;24.77;13.13;;;;;;;;;;5075643;28;20119;-66
2021/12/23 06:33:26;;;;;;;25.98;13.07;;;;;;;;;;5075294;28;20016;-67
2021/12/23 06:35:52;;;;;;;21.17;12.43;;;;;;;;;;5056537;28;20028;-68
2021/12/23 06:38:18;;;;;;;24.30;12.95;;;;;;;;;;5055465;28;20396;-67
2021/12/23 06:40:44;;;;;;;24.27;13.50;;;;;;;;;;5037643;28;20461;-67
2021/12/23 06:43:10;;;;;;;23.52;13.20;;;;;;;;;;5037039;28;20067;-68
2021/12/23 06:45:36;;;;;;;24.33;12.57;;;;;;;;;;5038076;28;20017;-68
2021/12/23 06:48:02;;;;;;;25.73;13.18;;;;;;;;;;5037451;28;20049;-67
2021/12/23 06:50:29;;;;;;;25.80;13.32;;;;;;;;;;5037761;28;20107;-67
2021/12/23 06:52:55;;;;;;;25.77;12.98;;;;;;;;;;5036687;28;20116;-68
2021/12/23 06:55:21;;;;;;;23.13;13.57;;;;;;;;;;5037551;28;20032;-68
2021/12/23 06:57:52;;;;;;;23.92;13.05;;;;;;;;;;5055054;28;20032;-67
2021/12/23 07:00:18;;;;;;;26.02;13.18;;;;;;;;;;5037364;28;20025;-67
2021/12/23 07:02:44;;;;;;;27.75;14.18;;;;;;;;;;5036391;28;20029;-68
2021/12/23 07:05:11;;;;;;;28.27;14.32;;;;;;;;;;5055062;28;20059;-68
2021/12/23 07:08:26;;;;;;;25.40;13.75;;;;;;;;;;5036743;28;20025;-67
2021/12/23 07:10:27;;;;;;;25.85;12.75;;;;;;;;;;5044094;28;20029;-66
2021/12/23 07:12:54;;;;;;;24.52;12.73;;;;;;;;;;5087978;22;20053;-72
2021/12/23 07:15:23;;;;;;;26.08;13.85;;;;;;;;;;5056937;28;20020;-71
2021/12/23 07:17:49;;;;;;;28.52;15.43;;;;;;;;;;5056939;28;20032;-73
2021/12/23 07:20:15;;;;;;;28.52;15.35;;;;;;;;;;5057030;28;20016;-71
2021/12/23 07:22:41;;;;;;;27.38;14.25;;;;;;;;;;5073821;28;20056;-72
2021/12/23 07:25:12;;;;;;;25.40;14.07;;;;;;;;;;5056631;28;20063;-74
2021/12/23 07:27:38;;;;;;;25.90;14.57;;;;;;;;;;5057008;28;20141;-73
2021/12/23 07:30:05;;;;;;;24.80;14.00;;;;;;;;;;5056723;28;20025;-72
2021/12/23 07:32:31;;;;;;;26.60;13.32;;;;;;;;;;5055813;28;20020;-72
2021/12/23 07:34:57;;;;;;;28.38;14.98;;;;;;;;;;5056542;28;20028;-72
2021/12/23 07:37:23;;;;;;;26.33;14.50;;;;;;;;;;5073846;28;20034;-71
2021/12/23 07:39:51;;;;;;;24.98;13.98;;;;;;;;;;5056665;28;20139;-71
2021/12/23 07:42:19;;;;;;;28.27;14.77;;;;;;;;;;5055847;28;20508;-70
2021/12/23 07:44:45;;;;;;;26.20;14.70;;;;;;;;;;5056750;28;20123;-71
2021/12/23 07:47:12;;;;;;;28.08;15.23;;;;;;;;;;5074489;28;20279;-67
2021/12/23 07:49:38;;;;;;;26.35;14.13;;;;;;;;;;5074199;28;20118;-69
2021/12/23 07:52:06;;;;;;;25.63;14.15;;;;;;;;;;5055483;28;20381;-69
2021/12/23 07:54:32;;;;;;;26.05;15.60;;;;;;;;;;5056593;28;20017;-69
2021/12/23 07:56:58;;;;;;;27.27;13.40;;;;;;;;;;5056219;28;20489;-70
2021/12/23 07:59:24;;;;;;;28.55;15.43;;;;;;;;;;5073995;28;20033;-70
2021/12/23 08:01:50;;;;;;;25.70;14.48;;;;;;;;;;5073355;28;20033;-68
2021/12/23 08:04:16;;;;;;;28.45;15.23;;;;;;;;;;5074306;28;20056;-70
2021/12/23 08:06:42;;;;;;;28.48;15.15;;;;;;;;;;5055804;28;20048;-69
2021/12/23 08:09:08;;;;;;;28.77;14.68;;;;;;;;;;5056230;28;20092;-70
2021/12/23 08:11:34;;;;;;;27.75;13.98;;;;;;;;;;5072578;28;20032;-69
2021/12/23 08:14:00;;;;;;;26.88;15.65;;;;;;;;;;5073286;28;20484;-70
2021/12/23 08:16:26;;;;;;;25.88;14.90;;;;;;;;;;5073634;28;20511;-70
2021/12/23 08:18:52;;;;;;;25.70;12.98;;;;;;;;;;5055607;28;20044;-70
2021/12/23 08:21:18;;;;;;;26.02;14.27;;;;;;;;;;5055952;28;20024;-70
2021/12/23 08:23:45;;;;;;;25.63;14.73;;;;;;;;;;5054714;28;20028;-71
2021/12/23 08:26:14;;;;;;;27.02;14.45;;;;;;;;;;5055549;28;20012;-72
2021/12/23 08:28:40;;;;;;;26.77;14.63;;;;;;;;;;5073325;28;20527;-71
2021/12/23 08:31:05;;;;;;;28.45;16.00;;;;;;;;;;5073482;28;20024;-71
2021/12/23 08:33:31;;;;;;;27.88;15.35;;;;;;;;;;5054358;28;20503;-71
2021/12/23 08:35:58;;;;;;;31.45;15.57;;;;;;;;;;5055386;28;20174;-71
2021/12/23 08:38:24;;;;;;;26.98;14.75;;;;;;;;;;5055535;28;20123;-71
2021/12/23 08:40:50;;;;;;;30.65;15.27;;;;;;;;;;5055688;28;20105;-71
2021/12/23 08:43:16;;;;;;;25.17;13.77;;;;;;;;;;5073005;28;20021;-71
2021/12/23 08:45:42;;;;;;;27.90;14.23;;;;;;;;;;5055818;28;20020;-70
2021/12/23 08:48:08;;;;;;;31.13;15.13;;;;;;;;;;5072822;28;20051;-69
2021/12/23 08:50:34;;;;;;;27.42;13.80;;;;;;;;;;5073220;28;20035;-69
2021/12/23 08:53:01;;;;;;;26.95;13.70;;;;;;;;;;5054293;28;20056;-69
2021/12/23 08:55:28;;;;;;;29.63;15.40;;;;;;;;;;5055008;28;20467;-69
2021/12/23 08:57:57;;;;;;;31.60;16.35;;;;;;;;;;5054745;28;20034;-70
2021/12/23 09:00:23;;;;;;;25.23;13.85;;;;;;;;;;5054947;28;20020;-67
2021/12/23 09:02:49;;;;;;;29.20;15.60;;;;;;;;;;5072151;28;20552;-68
2021/12/23 09:05:17;;;;;;;30.05;16.23;;;;;;;;;;5072799;28;20066;-69
2021/12/23 09:07:43;;;;;;;31.02;16.00;;;;;;;;;;5072803;28;20027;-68
2021/12/23 09:10:09;;;;;;;29.38;15.90;;;;;;;;;;5072621;28;20384;-72
2021/12/23 09:12:35;;;;;;;29.83;16.55;;;;;;;;;;5054140;28;20029;-71
2021/12/23 09:15:01;;;;;;;30.83;16.05;;;;;;;;;;5056090;28;20085;-73
2021/12/23 09:17:27;;;;;;;28.60;15.52;;;;;;;;;;5054839;28;20055;-71
2021/12/23 09:19:53;;;;;;;31.45;17.35;;;;;;;;;;5054626;28;20033;-73
2021/12/23 09:22:19;;;;;;;29.98;15.57;;;;;;;;;;5054193;28;20020;-73
2021/12/23 09:24:47;;;;;;;28.10;15.93;;;;;;;;;;5054601;28;20542;-72
2021/12/23 09:34:55;;;;;;;30.90;15.75;;;;;;;;;;5073074;28;20566;-74
2021/12/23 09:37:22;;;;;;;31.17;16.50;;;;;;;;;;5054785;28;20059;-72
2021/12/23 09:39:55;;;;;;;29.80;15.38;;;;;;;;;;5054727;28;20028;-73
2021/12/23 09:42:32;;;;;;;29.23;16.02;;;;;;;;;;5072259;28;20034;-73
2021/12/23 09:45:01;;;;;;;31.98;16.13;;;;;;;;;;5072597;28;20028;-74
2021/12/23 09:47:31;;;;;;;36.40;17.70;;;;;;;;;;5054404;28;20082;-73
2021/12/23 09:49:58;;;;;;;31.45;16.65;;;;;;;;;;5072721;28;20101;-73
2021/12/23 09:52:24;;;;;;;29.80;17.23;;;;;;;;;;5049266;28;20040;-71
2021/12/23 09:54:52;;;;;;;31.48;17.23;;;;;;;;;;5051257;28;20102;-70
2021/12/23 09:57:18;;;;;;;37.80;18.67;;;;;;;;;;5051232;28;20029;-71
2021/12/23 09:59:44;;;;;;;34.63;17.73;;;;;;;;;;5071395;28;20036;-70
2021/12/23 10:02:10;;;;;;;32.15;17.77;;;;;;;;;;5054448;28;20433;-69
2021/12/23 10:04:36;;;;;;;31.88;16.20;;;;;;;;;;5054896;28;20032;-67
2021/12/23 10:07:03;;;;;;;33.10;17.13;;;;;;;;;;5072690;28;20020;-69
2021/12/23 10:09:46;;;;;;;32.08;16.83;;;;;;;;;;5055235;28;20036;-69
2021/12/23 10:31:35;;;;;;;31.63;18.00;;;;;;;;;;5073110;28;20436;-69
2021/12/23 10:39:39;;;;;;;32.75;17.85;;;;;;;;;;5073976;28;20082;-68
2021/12/23 10:42:09;;;;;;;32.58;18.20;;;;;;;;;;5074450;28;20036;-69
2021/12/23 10:44:35;;;;;;;31.15;17.77;;;;;;;;;;5057622;28;20381;-69
2021/12/23 10:47:01;;;;;;;32.08;17.38;;;;;;;;;;5057030;28;20094;-69
2021/12/23 10:52:14;;;;;;;32.85;18.08;;;0.30;99.90;;;;;;5074531;28;20035;-68
2021/12/23 11:00:27;;;;;;;33.08;19.30;;;;;;;;;;5075253;28;20285;-70
2021/12/23 11:03:16;;;;;;;32.25;18.45;;;;;;;;;;5072848;28;20032;-69
2021/12/23 11:05:50;;;;;;;;;;;;;;;;;;5056603;28;20508;-70
2021/12/23 11:08:33;;;;;;;37.30;18.33;;;;;;;;;;5079733;28;20002;-71
2021/12/23 11:38:09;;;;;;;35.30;19.77;;;;;;;;;;5074687;28;20042;-69
2021/12/23 11:45:47;;;;;;;34.10;20.05;;;;;;;;;;5073887;28;20051;-68
2021/12/23 11:48:14;;;;;;;35.15;18.77;;;;;;;;;;5074074;28;20472;-69
2021/12/23 11:53:25;;;;;;;32.10;17.73;;;;;;;;;;5073463;28;20518;-69
2021/12/23 11:55:51;;;;;;;33.75;20.75;;;;;;;;;;5055848;28;20443;-68
2021/12/23 11:58:21;;;;;;;38.35;19.50;;;;;;;;;;5073852;28;20043;-69
2021/12/23 12:01:00;;;;;;;33.78;18.40;;;;;;;;;;5056011;28;20078;-69
2021/12/23 12:03:26;;;;;;;35.17;19.08;;;;;;;;;;5072815;28;20025;-68
2021/12/23 12:05:52;;;;;;;35.42;17.85;;;;;;;;;;5055964;28;20068;-69
2021/12/23 12:08:23;;;;;;;36.08;20.05;;;;;;;;;;5055588;28;20024;-70
2021/12/23 12:10:49;;;;;;;30.58;17.90;;;;;;;;;;5073462;28;20091;-70
2021/12/23 12:13:17;;;;;;;32.28;18.10;;;;;;;;;;5072593;28;20028;-69
2021/12/23 12:15:49;;;;;;;34.17;18.30;;;;;;;;;;5073523;28;20482;-70
2021/12/23 12:18:19;;;;;;;32.53;18.58;;;;;;;;;;5055424;28;20024;-68
2021/12/23 12:20:51;;;;;;;31.83;17.60;;;;;;;;;;5073202;28;20094;-70
2021/12/23 12:23:23;;;;;;;31.83;17.83;;;;;;;;;;5054341;28;20552;-70
2021/12/23 12:25:56;;;;;;;36.30;18.25;;;;;;;;;;5055160;28;20040;-68
2021/12/23 12:28:36;;;;;;;32.85;18.13;;;;;;;;;;5055140;28;20496;-73
2021/12/23 12:31:28;;;;;;;32.88;16.80;;;;;;;;;;5073014;28;20016;-66
2021/12/23 12:34:02;;;;;;;29.70;15.88;;;;;;;;;;5051066;28;20064;-67
2021/12/23 12:36:28;;;;;;;34.85;17.98;;;;;;;;;;5073281;28;20021;-69
2021/12/23 12:38:57;;;;;;;36.25;19.30;;;;;;;;;;5055044;28;20075;-69
2021/12/23 12:41:29;;;;;;;29.42;15.82;;;;;;;;;;5055426;28;20496;-69
2021/12/23 12:44:10;;;;;;;32.88;17.55;;;;;;;;;;5072330;28;20536;-69
2021/12/23 12:46:40;;;;;;;35.35;18.80;;;;;;;;;;5054923;28;20096;-69
2021/12/23 12:49:27;;;;;;;37.03;19.70;;;;;;;;;;5054957;28;20112;-69
2021/12/23 12:51:55;;;;;;;37.40;17.27;;;;;;;;;;5053365;28;20036;-69
2021/12/23 12:54:32;;;;;;;31.08;17.48;;;;;;;;;;5054078;28;20127;-68
2021/12/23 12:57:00;;;;;;;32.17;14.88;;;;;;;;;;5055065;28;20097;-68
2021/12/23 12:59:27;;;;;;;33.55;16.92;;;;;;;;;;5072378;28;20035;-66
2021/12/23 13:01:55;;;;;;;32.28;17.20;;;;;;;;;;5072005;28;20028;-68
2021/12/23 13:04:25;;;;;;;34.28;17.52;;;;;;;;;;5072872;28;20029;-67
2021/12/23 13:06:52;;;;;;;31.33;16.70;;;;;;;;;;5072309;28;20162;-69
2021/12/23 13:09:22;;;;;;;31.42;17.30;;;;;;;;;;5054353;28;20043;-67
2021/12/23 13:11:49;;;;;;;30.73;17.23;;;;;;;;;;5075990;23;20028;-71
2021/12/23 13:14:20;;;;;;;29.55;17.08;;;;;;;;;;5091760;28;20032;-70
2021/12/23 13:16:52;;;;;;;29.45;15.13;;;;;;;;;;5092286;28;20081;-71
2021/12/23 13:19:18;;;;;;;31.15;16.00;;;;;;;;;;5073566;28;20115;-69
2021/12/23 13:21:46;;;;;;;32.80;18.63;;;;;;;;;;5091472;28;20051;-71
2021/12/23 13:24:17;;;;;;;35.08;18.48;;;;;;;;;;5073735;28;20020;-72
2021/12/23 13:26:43;;;;;;;36.90;18.63;;;;;;;;;;5074051;28;20054;-70
2021/12/23 13:29:10;;;;;;;33.95;18.17;;;;;;;;;;5074178;28;20451;-69
2021/12/23 13:31:38;;;;;;;31.65;16.83;;;;;;;;;;5091048;28;20055;-69
2021/12/23 13:34:06;;;;;;;33.05;18.02;;;;;;;;;;5089941;28;20047;-70
2021/12/23 13:36:33;;;;;;;36.83;16.23;;;;;;;;;;5091657;28;20020;-70
2021/12/23 13:39:07;;;;;;;33.67;16.65;;;;;;;;;;5092064;28;20095;-69
2021/12/23 13:41:36;;;;;;;35.67;17.02;;;;;;;;;;5073677;28;20032;-72
2021/12/23 13:44:22;;;;;;;35.10;19.10;;;;;;;;;;5073270;28;20438;-71
2021/12/23 13:46:57;;;;;;;32.38;19.02;;;;;;;;;;5073060;28;20032;-69
2021/12/23 13:49:38;;;;;;;35.20;18.05;;;;;;;;;;5073311;28;20020;-70
2021/12/23 13:52:06;;;;;;;31.77;17.80;;;;;;;;;;5072652;28;20196;-71
2021/12/23 13:54:34;;;;;;;32.85;16.88;;;;;;;;;;5073062;28;20408;-70
2021/12/23 13:57:00;;;;;;;32.08;18.00;;;;;;;;;;5090872;28;20115;-71
2021/12/23 13:59:27;;;;;;;30.83;16.45;;;;;;;;;;5073463;28;20028;-71
2021/12/23 14:01:55;;;;;;;36.07;16.63;;;;;;;;;;5072340;28;20131;-68
2021/12/23 14:04:31;;;;;;;33.72;17.75;;;;;;;;;;5073207;28;20028;-71
2021/12/23 14:06:58;;;;;;;38.95;18.35;;;;;;;;;;5091220;28;20067;-71
2021/12/23 14:09:31;;;;;;;32.15;16.60;;;;;;;;;;5073468;28;20025;-69
2021/12/23 14:11:57;;;;;;;31.95;17.08;;;;;;;;;;5072218;28;20020;-70
2021/12/23 14:14:23;;;;;;;31.58;16.42;;;;;;;;;;5072683;28;20368;-69
2021/12/23 14:16:49;;;;;;;33.15;17.52;;;;;;;;;;5091504;28;20027;-70
2021/12/23 14:23:11;;;;;;;30.02;15.93;;;;;;;;;;5072946;28;20020;-70
2021/12/23 14:24:55;;;;;;;32.47;17.33;;;;;;;;;;5091595;28;20066;-70
2021/12/23 14:27:21;;;;;;;32.33;18.65;;;;;;;;;;5072587;28;20051;-68
2021/12/23 14:29:49;;;;;;;32.58;16.77;;;;;;;;;;5073307;28;20134;-69
2021/12/23 14:32:15;;;;;;;33.40;17.17;;;;;;;;;;5089357;28;20086;-70
2021/12/23 14:34:41;;;;;;;31.75;16.98;;;;;;;;;;5090509;28;20483;-70
2021/12/23 14:37:09;;;;;;;38.30;15.82;;;;;;;;;;5090714;28;20057;-69
2021/12/23 14:39:39;;;;;;;32.38;17.10;;;;;;;;;;5073162;28;20035;-73
2021/12/23 14:42:11;;;;;;;29.90;15.57;;;;;;;;;;5073491;28;20028;-78
2021/12/23 14:44:39;;;;;;;31.52;15.32;;;;;;;;;;5091448;28;20024;-71
2021/12/23 14:47:22;;;;;;;31.77;17.20;;;;;;;;;;5075934;28;20048;-73
2021/12/23 14:52:20;;;;;;;30.77;15.40;;;;;;;;;;5093077;28;20081;-72
2021/12/23 14:55:14;;;;;;;33.22;16.67;;;;;;;;;;5075968;28;20089;-73
2021/12/23 14:57:50;;;;;;;32.40;17.77;;;;;;;;;;5076466;28;20345;-73
2021/12/23 15:00:16;;;;;;;37.70;17.85;;;;;;;;;;5094820;28;20024;-73
2021/12/23 15:02:44;;;;;;;30.52;15.60;;;;;;;;;;5074797;28;20040;-72
2021/12/23 15:05:15;;;;;;;29.15;16.05;;;;;;;;;;5094179;28;20533;-73
2021/12/23 15:07:47;;;;;;;29.95;15.15;;;;;;;;;;5075928;28;20489;-72
2021/12/23 15:10:13;;;;;;;34.03;15.57;;;;;;;;;;5093576;28;20016;-72
2021/12/23 15:12:39;;;;;;;30.55;15.55;;;;;;;;;;5074620;28;20107;-72
2021/12/23 15:15:06;;;;;;;30.10;17.13;;;;;;;;;;5093383;28;20024;-73
2021/12/23 15:17:42;;;;;;;29.75;14.70;;;;;;;;;;5093970;28;20480;-70
2021/12/23 15:20:17;;;;;;;32.20;15.27;;;;;;;;;;5093936;28;20048;-72
2021/12/23 15:22:44;;;;;;;30.60;15.65;;;;;;;;;;5075204;28;20426;-72
2021/12/23 15:25:12;;;;;;;32.70;16.75;;;;;;;;;;5075644;28;20409;-73
2021/12/23 15:27:39;;;;;;;32.75;16.25;;;;;;;;;;5075232;28;20055;-72
2021/12/23 15:30:17;;;;;;;33.88;17.27;;;;;;;;;;5093539;28;20051;-73
2021/12/23 15:32:43;;;;;;;32.10;15.52;;;;;;;;;;5074492;28;20021;-71
2021/12/23 15:35:16;;;;;;;30.88;16.02;;;;;;;;;;5093478;28;20081;-72
2021/12/23 15:37:43;;;;;;;33.67;16.02;;;;;;;;;;5093553;28;20556;-70
2021/12/23 15:40:12;;;;;;;30.42;15.68;;;;;;;;;;5073421;28;20035;-70